Time;durP1;ratioP1;P1;durP2;ratioP2;P2;SDS_P1;SDS_P2;PMS_P1;PMS_P2;Temp;Humidity;BMP_temperature;BMP_pressure;BME280_temperature;BME280_humidity;BME280_pressure;Samples;Min_cycle;Max_cycle;Signal;HPM_P1;HPM_P2
2022/03/09 00:01:35;;;;;;;4.72;3.25;;;17.20;45.70;;;;;;5053015;28;20203;-67
2022/03/09 00:04:01;;;;;;;4.32;3.80;;;17.20;45.70;;;;;;5052334;28;20573;-66
2022/03/09 00:06:26;;;;;;;3.92;3.63;;;17.20;45.60;;;;;;5052606;28;20267;-66
2022/03/09 00:08:52;;;;;;;3.80;3.45;;;17.20;45.80;;;;;;5052741;28;20178;-67
2022/03/09 00:11:18;;;;;;;3.72;3.42;;;17.10;45.70;;;;;;5050369;28;20583;-68
2022/03/09 00:13:43;;;;;;;3.78;3.35;;;17.10;45.60;;;;;;5052563;28;20207;-67
2022/03/09 00:16:09;;;;;;;4.90;3.75;;;17.10;45.70;;;;;;5052424;28;20637;-68
2022/03/09 00:18:34;;;;;;;3.83;3.53;;;17.10;45.60;;;;;;5051969;28;20644;-67
2022/03/09 00:21:00;;;;;;;3.88;3.28;;;17.10;45.70;;;;;;5052466;28;20614;-67
2022/03/09 00:23:25;;;;;;;3.75;3.45;;;17.00;45.60;;;;;;5052024;28;20222;-67
2022/03/09 00:25:51;;;;;;;3.67;3.38;;;17.00;45.60;;;;;;5051494;28;20182;-68
2022/03/09 00:28:16;;;;;;;3.30;3.00;;;17.00;45.70;;;;;;5051996;28;20171;-67
2022/03/09 00:30:42;;;;;;;3.80;3.40;;;17.00;45.60;;;;;;5052494;28;20257;-68
2022/03/09 00:33:07;;;;;;;3.55;3.28;;;17.00;45.70;;;;;;5051261;28;20179;-66
2022/03/09 00:35:33;;;;;;;3.95;3.65;;;17.00;45.60;;;;;;5052585;28;20202;-66
2022/03/09 00:37:58;;;;;;;3.70;3.40;;;17.00;45.60;;;;;;5051722;28;20258;-67
2022/03/09 00:40:24;;;;;;;3.83;3.40;;;17.00;45.60;;;;;;5051474;28;20233;-67
2022/03/09 00:42:49;;;;;;;3.80;3.50;;;17.00;45.60;;;;;;5051858;28;20637;-67
2022/03/09 00:45:15;;;;;;;3.72;3.42;;;16.90;45.70;;;;;;5050050;28;20179;-67
2022/03/09 00:47:40;;;;;;;4.07;3.28;;;16.90;45.60;;;;;;5052189;28;20175;-67
2022/03/09 00:50:06;;;;;;;3.30;3.00;;;16.90;45.60;;;;;;5051572;28;20256;-67
2022/03/09 00:52:32;;;;;;;3.70;3.40;;;16.90;45.70;;;;;;5051211;28;20175;-67
2022/03/09 00:54:57;;;;;;;3.47;3.17;;;16.90;45.70;;;;;;5051812;28;20321;-67
2022/03/09 00:57:23;;;;;;;4.30;3.45;;;16.90;45.70;;;;;;5051391;28;20232;-67
2022/03/09 00:59:48;;;;;;;3.90;3.42;;;16.80;45.70;;;;;;5051012;28;20639;-66
2022/03/09 01:02:14;;;;;;;4.10;3.80;;;16.80;45.70;;;;;;5051631;28;20214;-67
2022/03/09 01:04:39;;;;;;;4.18;3.78;;;16.80;45.60;;;;;;5051568;28;20175;-66
2022/03/09 01:07:05;;;;;;;3.72;3.42;;;16.80;45.80;;;;;;5051132;28;20269;-66
2022/03/09 01:09:30;;;;;;;3.60;3.30;;;16.80;45.80;;;;;;5051566;28;20265;-67
2022/03/09 01:11:57;;;;;;;3.88;3.47;;;16.80;45.80;;;;;;5051541;28;20167;-68
2022/03/09 01:14:23;;;;;;;4.07;3.67;;;16.80;45.80;;;;;;5050834;28;20179;-68
2022/03/09 01:16:48;;;;;;;4.50;3.40;;;16.80;45.70;;;;;;5051741;28;20175;-68
2022/03/09 01:19:14;;;;;;;4.63;4.00;;;16.70;46.50;;;;;;5051239;28;20270;-68
2022/03/09 01:21:39;;;;;;;4.35;3.95;;;16.70;45.80;;;;;;5051045;28;20267;-67
2022/03/09 01:24:06;;;;;;;4.20;3.80;;;16.70;45.80;;;;;;5051421;28;20190;-67
2022/03/09 01:26:32;;;;;;;4.40;4.00;;;16.70;45.80;;;;;;5051543;28;20178;-68
2022/03/09 01:28:57;;;;;;;3.85;3.45;;;16.70;45.70;;;;;;5050717;28;20174;-67
2022/03/09 01:31:23;;;;;;;3.70;3.40;;;16.70;45.80;;;;;;5051102;28;20238;-68
2022/03/09 01:33:48;;;;;;;4.28;3.88;;;16.70;45.80;;;;;;5051572;28;20190;-66
2022/03/09 01:36:14;;;;;;;3.45;3.25;;;16.60;45.70;;;;;;5050288;28;20198;-66
2022/03/09 01:38:40;;;;;;;4.15;3.75;;;16.70;45.80;;;;;;5051408;28;20175;-65
2022/03/09 01:41:05;;;;;;;4.13;3.28;;;16.60;45.70;;;;;;5051322;28;20650;-66
2022/03/09 01:43:31;;;;;;;3.60;3.30;;;16.60;45.90;;;;;;5050378;28;20214;-67
2022/03/09 01:45:57;;;;;;;3.63;3.30;;;16.60;45.90;;;;;;5051499;28;20213;-67
2022/03/09 01:48:22;;;;;;;3.70;3.40;;;16.60;46.00;;;;;;5050288;28;20175;-68
2022/03/09 01:50:48;;;;;;;4.03;3.63;;;16.60;45.90;;;;;;5051256;28;20175;-67
2022/03/09 01:53:13;;;;;;;4.68;3.83;;;16.60;45.90;;;;;;5049700;28;20233;-66
2022/03/09 01:55:39;;;;;;;3.75;3.25;;;16.60;45.90;;;;;;5050326;28;20239;-67
2022/03/09 01:58:05;;;;;;;3.45;3.10;;;16.50;45.90;;;;;;5054237;28;20460;-66
2022/03/09 02:00:30;;;;;;;3.70;3.38;;;16.50;45.80;;;;;;5055054;28;20179;-67
2022/03/09 02:02:56;;;;;;;3.70;3.40;;;16.60;46.10;;;;;;5054393;28;20207;-66
2022/03/09 02:05:22;;;;;;;3.95;3.55;;;16.50;45.90;;;;;;5054791;28;20171;-66
2022/03/09 02:10:31;;;;;;;3.47;3.17;;;16.50;46.00;;;;;;5054050;28;20199;-68
2022/03/09 02:12:56;;;;;;;3.97;3.67;;;16.50;46.00;;;;;;5053850;28;20269;-68
2022/03/09 02:15:22;;;;;;;3.58;3.28;;;16.50;46.10;;;;;;5054695;28;20258;-68
2022/03/09 02:17:47;;;;;;;5.03;3.60;;;16.50;46.00;;;;;;5054308;28;20177;-67
2022/03/09 02:20:13;;;;;;;3.55;3.25;;;16.50;45.90;;;;;;5054408;28;20630;-68
2022/03/09 02:22:40;;;;;;;4.15;3.85;;;16.40;45.90;;;;;;5054645;28;20207;-68
2022/03/09 02:25:13;;;;;;;3.50;3.20;;;16.40;46.00;;;;;;5053897;28;20175;-67
2022/03/09 02:27:38;;;;;;;3.65;3.35;;;16.40;45.90;;;;;;5054803;28;20178;-67
2022/03/09 02:30:05;;;;;;;3.30;3.00;;;16.40;46.00;;;;;;5054658;28;20175;-68
2022/03/09 02:32:30;;;;;;;3.75;3.45;;;16.40;46.00;;;;;;5052357;28;20224;-67
2022/03/09 02:34:56;;;;;;;4.55;3.38;;;16.40;46.00;;;;;;5054596;28;20171;-66
2022/03/09 02:37:21;;;;;;;4.50;3.72;;;16.40;45.90;;;;;;5054102;28;20532;-66
2022/03/09 02:39:47;;;;;;;3.47;3.17;;;16.30;45.90;;;;;;5053559;28;20175;-67
2022/03/09 02:42:12;;;;;;;3.88;3.58;;;16.40;45.90;;;;;;5054122;28;20218;-67
2022/03/09 02:44:38;;;;;;;4.07;3.67;;;16.30;46.00;;;;;;5053777;28;20534;-68
2022/03/09 02:47:04;;;;;;;3.70;3.38;;;16.30;46.00;;;;;;5054345;28;20261;-67
2022/03/09 02:49:29;;;;;;;3.60;3.30;;;16.30;46.00;;;;;;5054092;28;20198;-68
2022/03/09 02:51:55;;;;;;;4.03;3.70;;;16.30;46.00;;;;;;5053368;28;20342;-68
2022/03/09 02:54:20;;;;;;;3.90;3.28;;;16.30;46.00;;;;;;5053581;28;20221;-67
2022/03/09 02:56:46;;;;;;;5.25;3.53;;;16.30;46.00;;;;;;5054061;28;20183;-67
2022/03/09 02:59:11;;;;;;;4.10;3.70;;;16.30;46.10;;;;;;5052985;28;20543;-66
2022/03/09 03:01:37;;;;;;;3.83;3.53;;;16.20;45.90;;;;;;5053852;28;20634;-67
2022/03/09 03:04:02;;;;;;;4.03;3.25;;;16.30;46.00;;;;;;5054025;28;20179;-67
2022/03/09 03:06:28;;;;;;;4.03;3.72;;;16.20;45.90;;;;;;5052788;28;20180;-67
2022/03/09 03:08:53;;;;;;;4.40;3.65;;;16.20;45.90;;;;;;5053884;28;20212;-67
2022/03/09 03:11:19;;;;;;;5.07;4.13;;;16.20;45.90;;;;;;5053726;28;20175;-68
2022/03/09 03:13:45;;;;;;;3.90;3.60;;;16.20;46.00;;;;;;5053231;28;20167;-67
2022/03/09 03:16:10;;;;;;;3.42;3.13;;;16.20;45.90;;;;;;5053582;28;20199;-68
2022/03/09 03:18:36;;;;;;;3.70;3.40;;;16.20;45.90;;;;;;5053584;28;20176;-68
2022/03/09 03:21:01;;;;;;;3.92;3.55;;;16.20;46.00;;;;;;5052885;28;20175;-67
2022/03/09 03:23:28;;;;;;;4.20;3.17;;;16.20;46.00;;;;;;5053169;28;20207;-68
2022/03/09 03:25:54;;;;;;;3.92;3.60;;;16.20;46.10;;;;;;5053445;28;20646;-68
2022/03/09 03:28:20;;;;;;;3.88;3.58;;;16.20;46.10;;;;;;5052485;28;20762;-68
2022/03/09 03:30:45;;;;;;;3.67;3.38;;;16.10;46.10;;;;;;5053562;28;20281;-68
2022/03/09 03:33:11;;;;;;;5.78;3.38;;;16.10;46.10;;;;;;5053183;28;20255;-67
2022/03/09 03:35:37;;;;;;;4.20;3.80;;;16.10;46.10;;;;;;5052713;28;20233;-66
2022/03/09 03:38:03;;;;;;;4.20;3.38;;;16.10;46.00;;;;;;5053115;28;20171;-67
2022/03/09 03:40:28;;;;;;;4.35;3.95;;;16.10;46.10;;;;;;5052870;28;20601;-67
2022/03/09 03:42:54;;;;;;;4.15;3.75;;;16.10;45.90;;;;;;5052371;28;20288;-67
2022/03/09 03:45:19;;;;;;;4.20;3.80;;;16.10;46.10;;;;;;5052906;28;20175;-67
2022/03/09 03:47:45;;;;;;;4.13;3.83;;;16.10;46.00;;;;;;5053206;28;20179;-67
2022/03/09 03:50:10;;;;;;;4.00;3.60;;;16.00;46.00;;;;;;5052239;28;20175;-68
2022/03/09 03:52:36;;;;;;;3.78;3.40;;;16.00;46.00;;;;;;5052944;28;20241;-67
2022/03/09 03:55:01;;;;;;;4.03;3.53;;;16.00;45.90;;;;;;5052323;28;20700;-68
2022/03/09 03:57:28;;;;;;;4.00;3.50;;;16.00;46.00;;;;;;5052606;28;20175;-67
2022/03/09 03:59:53;;;;;;;4.03;3.63;;;16.00;46.10;;;;;;5052798;28;20214;-67
2022/03/09 04:02:19;;;;;;;5.43;4.07;;;16.00;46.00;;;;;;5051829;28;20371;-67
2022/03/09 04:04:44;;;;;;;4.07;3.67;;;16.00;46.00;;;;;;5052654;28;20198;-68
2022/03/09 04:07:10;;;;;;;4.18;3.67;;;16.00;46.00;;;;;;5052339;28;20633;-67
2022/03/09 04:09:35;;;;;;;4.25;3.88;;;16.00;46.50;;;;;;5052228;28;20624;-67
2022/03/09 04:12:01;;;;;;;4.30;3.65;;;16.00;46.00;;;;;;5052578;28;20175;-68
2022/03/09 04:14:26;;;;;;;4.43;4.03;;;16.00;46.00;;;;;;5052352;28;20301;-68
2022/03/09 04:16:52;;;;;;;3.85;3.45;;;15.90;45.90;;;;;;5051770;28;20593;-68
2022/03/09 04:19:17;;;;;;;4.03;3.63;;;15.90;45.90;;;;;;5052118;28;20282;-69
2022/03/09 04:21:43;;;;;;;3.78;3.47;;;15.90;45.90;;;;;;5052326;28;20290;-68
2022/03/09 04:24:08;;;;;;;4.78;4.00;;;15.90;46.00;;;;;;5051549;28;20275;-69
2022/03/09 04:26:34;;;;;;;4.75;3.65;;;15.90;45.90;;;;;;5052453;28;20172;-69
2022/03/09 04:28:59;;;;;;;4.03;3.55;;;15.90;46.00;;;;;;5052261;28;20183;-68
2022/03/09 04:31:25;;;;;;;4.03;3.63;;;15.90;46.00;;;;;;5051163;28;20702;-68
2022/03/09 04:33:50;;;;;;;3.92;3.63;;;15.90;46.00;;;;;;5052206;28;20175;-67
2022/03/09 04:36:16;;;;;;;3.67;3.38;;;15.80;45.90;;;;;;5052045;28;20579;-68
2022/03/09 04:38:41;;;;;;;4.05;3.75;;;15.80;46.60;;;;;;5051653;28;20171;-67
2022/03/09 04:41:07;;;;;;;3.92;3.63;;;15.80;45.90;;;;;;5052028;28;20194;-67
2022/03/09 04:43:33;;;;;;;4.13;3.30;;;15.80;46.00;;;;;;5052130;28;20242;-68
2022/03/09 04:45:58;;;;;;;4.00;3.60;;;15.80;46.00;;;;;;5051388;28;20175;-68
2022/03/09 04:48:24;;;;;;;4.30;3.90;;;15.80;46.00;;;;;;5051702;28;20179;-69
2022/03/09 04:50:49;;;;;;;3.70;3.40;;;15.80;46.00;;;;;;5051730;28;20202;-68
2022/03/09 04:53:15;;;;;;;3.60;3.30;;;15.80;46.00;;;;;;5050823;28;20641;-67
2022/03/09 04:55:40;;;;;;;3.67;3.38;;;15.80;46.00;;;;;;5051786;28;20317;-68
2022/03/09 04:58:06;;;;;;;3.55;3.25;;;15.80;46.00;;;;;;5051579;28;20170;-67
2022/03/09 05:00:31;;;;;;;3.75;3.45;;;15.80;46.10;;;;;;5050982;28;20176;-67
2022/03/09 05:02:57;;;;;;;4.03;3.33;;;15.70;45.90;;;;;;5051603;28;20206;-66
2022/03/09 05:05:22;;;;;;;3.60;3.30;;;15.70;45.90;;;;;;5050555;28;20482;-67
2022/03/09 05:07:48;;;;;;;3.67;3.38;;;15.70;46.00;;;;;;5051907;28;20175;-67
2022/03/09 05:10:14;;;;;;;3.53;3.25;;;15.70;46.00;;;;;;5051374;28;20194;-68
2022/03/09 05:12:39;;;;;;;4.50;3.40;;;15.70;46.00;;;;;;5051095;28;20185;-68
2022/03/09 05:15:05;;;;;;;3.92;3.47;;;15.70;46.00;;;;;;5051577;28;20171;-67
2022/03/09 05:17:30;;;;;;;3.65;3.35;;;15.70;46.00;;;;;;5051334;28;20175;-68
2022/03/09 05:19:56;;;;;;;4.53;3.67;;;15.70;46.00;;;;;;5051020;28;20233;-67
2022/03/09 05:22:22;;;;;;;4.15;3.70;;;15.70;46.00;;;;;;5050898;28;20317;-67
2022/03/09 05:24:47;;;;;;;3.80;3.50;;;15.70;46.00;;;;;;5051261;28;20660;-70
2022/03/09 05:27:12;;;;;;;3.97;3.47;;;15.60;45.90;;;;;;5050681;28;20274;-67
2022/03/09 05:29:38;;;;;;;4.10;3.70;;;15.60;46.00;;;;;;5051351;28;20171;-68
2022/03/09 05:32:04;;;;;;;3.78;3.47;;;15.60;45.90;;;;;;5052686;28;20179;-68
2022/03/09 05:34:30;;;;;;;3.45;3.15;;;15.60;45.90;;;;;;5054366;28;20182;-66
2022/03/09 05:36:55;;;;;;;4.00;3.60;;;15.60;46.00;;;;;;5055278;28;20182;-67
2022/03/09 05:39:21;;;;;;;4.15;3.85;;;15.60;46.00;;;;;;5055202;28;20189;-67
2022/03/09 05:41:47;;;;;;;3.60;3.25;;;15.60;46.00;;;;;;5054640;28;20275;-69
2022/03/09 05:44:16;;;;;;;4.07;3.67;;;15.60;45.90;;;;;;5054868;28;20183;-68
2022/03/09 05:46:42;;;;;;;4.03;3.63;;;15.60;46.00;;;;;;5055157;28;20229;-67
2022/03/09 05:49:07;;;;;;;3.50;3.20;;;15.60;46.00;;;;;;5054202;28;20582;-67
2022/03/09 05:51:33;;;;;;;4.28;3.88;;;15.60;46.00;;;;;;5055015;28;20179;-67
2022/03/09 05:53:58;;;;;;;5.35;3.45;;;15.50;46.00;;;;;;5055090;28;20189;-67
2022/03/09 05:56:24;;;;;;;3.42;3.17;;;15.50;45.90;;;;;;5054061;28;20222;-68
2022/03/09 05:58:50;;;;;;;3.75;3.47;;;15.50;46.00;;;;;;5055145;28;20245;-67
2022/03/09 06:01:15;;;;;;;3.28;2.97;;;15.50;46.10;;;;;;5054890;28;20538;-66
2022/03/09 06:03:41;;;;;;;3.50;3.20;;;15.50;45.80;;;;;;5054299;28;20207;-65
2022/03/09 06:06:06;;;;;;;3.83;3.53;;;15.60;45.50;;;;;;5054803;28;20179;-67
2022/03/09 06:08:32;;;;;;;3.95;3.55;;;15.70;45.50;;;;;;5054501;28;20530;-67
2022/03/09 06:10:57;;;;;;;3.60;3.30;;;15.70;45.30;;;;;;5054719;28;20182;-68
2022/03/09 06:13:23;;;;;;;3.97;3.67;;;15.70;45.30;;;;;;5054799;28;20602;-68
2022/03/09 06:15:49;;;;;;;4.07;3.67;;;15.80;44.90;;;;;;5054249;28;20198;-68
2022/03/09 06:18:15;;;;;;;3.63;3.00;;;15.90;44.70;;;;;;5054470;28;20254;-68
2022/03/09 06:20:40;;;;;;;3.42;3.13;;;16.00;44.70;;;;;;5054827;28;20273;-68
2022/03/09 06:23:06;;;;;;;3.70;3.40;;;16.00;44.60;;;;;;5054003;28;20492;-66
2022/03/09 06:25:34;;;;;;;3.40;3.10;;;16.10;44.70;;;;;;5054761;28;20171;-67
2022/03/09 06:28:00;;;;;;;3.55;3.25;;;16.10;44.70;;;;;;5054768;28;20276;-68
2022/03/09 06:30:25;;;;;;;3.17;2.88;;;16.20;44.70;;;;;;5053378;28;20623;-68
2022/03/09 06:32:51;;;;;;;4.53;3.30;;;16.20;44.70;;;;;;5054639;28;20174;-66
2022/03/09 06:35:19;;;;;;;3.28;2.97;;;16.20;44.60;;;;;;5054120;28;20209;-65
2022/03/09 06:37:48;;;;;;;3.28;2.97;;;16.30;44.70;;;;;;5053810;28;20179;-66
2022/03/09 06:40:13;;;;;;;3.20;2.90;;;16.40;44.70;;;;;;5054138;28;20237;-67
2022/03/09 06:42:39;;;;;;;3.10;2.90;;;16.40;44.60;;;;;;5053871;28;20203;-66
2022/03/09 06:45:05;;;;;;;2.95;2.75;;;16.50;44.50;;;;;;5052767;28;20213;-68
2022/03/09 06:47:32;;;;;;;3.55;2.83;;;16.50;44.50;;;;;;5052903;28;20646;-67
2022/03/09 06:49:58;;;;;;;3.22;2.92;;;16.60;44.40;;;;;;5054436;28;20193;-68
2022/03/09 06:52:24;;;;;;;3.53;3.22;;;16.50;44.40;;;;;;5053365;28;20733;-68
2022/03/09 06:54:49;;;;;;;3.83;3.42;;;16.50;44.40;;;;;;5054225;28;20218;-67
2022/03/09 06:57:15;;;;;;;3.53;3.22;;;16.50;44.40;;;;;;5053911;28;20179;-67
2022/03/09 06:59:44;;;;;;;4.07;3.40;;;16.60;44.50;;;;;;5053380;28;20219;-67
2022/03/09 07:02:09;;;;;;;3.95;3.60;;;16.60;44.40;;;;;;5053459;28;20203;-66
2022/03/09 07:04:35;;;;;;;3.75;3.40;;;16.70;44.40;;;;;;5053875;28;20586;-67
2022/03/09 07:07:00;;;;;;;3.90;3.40;;;16.70;44.30;;;;;;5053439;28;20171;-66
2022/03/09 07:09:26;;;;;;;3.78;3.40;;;16.80;44.30;;;;;;5053669;28;20175;-68
2022/03/09 07:11:52;;;;;;;7.03;3.63;;;16.90;44.20;;;;;;5053222;28;20197;-68
2022/03/09 07:14:18;;;;;;;3.53;3.03;;;17.00;44.10;;;;;;5053490;28;20262;-69
2022/03/09 07:16:44;;;;;;;3.63;3.33;;;17.10;44.00;;;;;;5053815;28;20175;-68
2022/03/09 07:19:09;;;;;;;2.92;2.72;;;17.10;43.90;;;;;;5053121;28;20178;-68
2022/03/09 07:21:35;;;;;;;4.13;3.40;;;17.20;43.90;;;;;;5053822;28;20202;-67
2022/03/09 07:24:00;;;;;;;6.63;3.15;;;17.30;44.00;;;;;;5053687;28;20274;-63
2022/03/09 07:26:26;;;;;;;5.90;3.25;;;17.30;44.30;;;;;;5052860;28;20915;-70
2022/03/09 07:28:52;;;;;;;3.78;3.13;;;17.30;44.50;;;;;;5053635;28;20489;-65
2022/03/09 07:31:17;;;;;;;5.28;3.55;;;17.40;45.80;;;;;;5052100;28;20179;-66
2022/03/09 07:33:43;;;;;;;4.20;3.33;;;17.60;45.00;;;;;;5053073;28;20207;-64
2022/03/09 07:36:09;;;;;;;4.47;3.17;;;17.70;44.80;;;;;;5053259;28;20183;-63
2022/03/09 07:38:38;;;;;;;4.45;3.17;;;17.80;44.70;;;;;;5053594;28;20595;-62
2022/03/09 07:41:04;;;;;;;3.65;3.10;;;18.00;44.70;;;;;;5052552;28;20641;-63
2022/03/09 07:43:29;;;;;;;4.68;3.65;;;18.10;44.50;;;;;;5053138;28;20276;-62
2022/03/09 07:45:55;;;;;;;7.30;4.63;;;18.10;44.30;;;;;;5053381;28;20174;-66
2022/03/09 07:48:20;;;;;;;4.80;4.25;;;18.20;43.90;;;;;;5052232;28;20483;-66
2022/03/09 07:50:46;;;;;;;10.68;5.25;;;18.30;43.80;;;;;;5053350;28;20171;-65
2022/03/09 07:53:11;;;;;;;10.48;4.78;;;18.30;43.70;;;;;;5053004;28;20262;-65
2022/03/09 07:55:37;;;;;;;7.63;4.18;;;18.30;43.80;;;;;;5051724;28;20234;-66
2022/03/09 07:58:02;;;;;;;7.65;3.88;;;18.40;44.10;;;;;;5052937;28;20186;-66
2022/03/09 08:00:28;;;;;;;6.13;3.83;;;18.40;43.90;;;;;;5052697;28;20178;-66
2022/03/09 08:02:53;;;;;;;8.85;4.03;;;18.50;44.00;;;;;;5052536;28;20206;-67
2022/03/09 08:05:19;;;;;;;11.40;4.45;;;18.50;44.00;;;;;;5052869;28;20183;-65
2022/03/09 08:07:47;;;;;;;9.88;4.20;;;18.60;44.00;;;;;;5053039;28;20285;-69
2022/03/09 08:10:13;;;;;;;9.70;3.83;;;18.60;44.00;;;;;;5052062;28;20180;-67
2022/03/09 08:12:39;;;;;;;7.75;4.35;;;18.70;43.90;;;;;;5052891;28;20268;-67
2022/03/09 08:15:05;;;;;;;7.95;3.80;;;18.70;43.90;;;;;;5052656;28;20211;-67
2022/03/09 08:17:31;;;;;;;7.78;3.53;;;18.70;44.10;;;;;;5050408;28;20183;-67
2022/03/09 08:19:56;;;;;;;7.00;3.78;;;18.80;44.10;;;;;;5052799;28;20656;-67
2022/03/09 08:22:22;;;;;;;6.50;3.40;;;18.80;44.10;;;;;;5051418;28;20604;-70
2022/03/09 08:24:48;;;;;;;6.47;3.20;;;18.80;44.20;;;;;;5052536;28;20641;-69
2022/03/09 08:27:13;;;;;;;5.10;3.28;;;18.90;44.30;;;;;;5052248;28;20274;-69
2022/03/09 08:29:42;;;;;;;4.57;3.25;;;18.90;44.40;;;;;;5051754;28;20175;-69
2022/03/09 08:32:07;;;;;;;7.90;3.00;;;18.90;44.40;;;;;;5052347;28;20191;-68
2022/03/09 08:34:33;;;;;;;6.88;3.47;;;18.90;44.50;;;;;;5051564;28;20197;-67
2022/03/09 08:36:58;;;;;;;6.45;3.35;;;18.90;44.50;;;;;;5051144;28;20610;-67
2022/03/09 08:39:24;;;;;;;4.93;3.05;;;18.90;44.60;;;;;;5052036;28;20316;-65
2022/03/09 08:41:49;;;;;;;4.18;3.22;;;18.80;44.70;;;;;;5052246;28;20249;-64
2022/03/09 08:44:16;;;;;;;3.90;3.58;;;18.80;44.80;;;;;;5051202;28;20205;-64
2022/03/09 08:46:41;;;;;;;6.20;3.50;;;18.70;44.90;;;;;;5052519;28;20172;-65
2022/03/09 08:49:07;;;;;;;4.20;3.03;;;18.60;45.00;;;;;;5038969;28;20255;-64
2022/03/09 08:51:32;;;;;;;5.53;2.90;;;18.60;45.10;;;;;;5049907;28;20664;-64
2022/03/09 08:53:58;;;;;;;5.40;3.30;;;18.60;45.10;;;;;;5052215;28;20175;-65
2022/03/09 08:56:23;;;;;;;3.97;3.15;;;18.50;45.10;;;;;;5051648;28;20235;-64
2022/03/09 08:58:49;;;;;;;4.10;2.85;;;18.50;45.10;;;;;;5051105;28;20167;-63
2022/03/09 09:01:15;;;;;;;6.15;3.42;;;18.50;45.10;;;;;;5051816;28;20583;-64
2022/03/09 09:03:41;;;;;;;9.65;3.22;;;18.50;45.10;;;;;;5051757;28;20215;-63
2022/03/09 09:06:06;;;;;;;3.90;2.80;;;18.50;45.20;;;;;;5034335;28;20197;-64
2022/03/09 09:08:32;;;;;;;6.65;3.30;;;18.40;45.20;;;;;;5032022;28;20217;-64
2022/03/09 09:10:57;;;;;;;4.47;3.10;;;18.40;45.30;;;;;;5031914;28;20213;-64
2022/03/09 09:13:23;;;;;;;5.75;3.25;;;18.40;45.40;;;;;;5030742;28;20171;-65
2022/03/09 09:15:49;;;;;;;5.15;3.45;;;18.40;45.40;;;;;;5032162;28;20179;-65
2022/03/09 09:18:14;;;;;;;4.57;3.28;;;18.40;45.50;;;;;;5031772;28;20186;-65
2022/03/09 09:20:40;;;;;;;4.65;3.03;;;18.50;45.50;;;;;;5031386;28;20489;-64
2022/03/09 09:23:05;;;;;;;4.38;3.05;;;18.50;45.40;;;;;;5046868;28;20643;-63
2022/03/09 09:25:31;;;;;;;4.22;2.85;;;18.50;45.40;;;;;;5051229;28;20697;-63
2022/03/09 09:27:56;;;;;;;4.88;3.17;;;18.50;45.40;;;;;;5051476;28;20232;-65
2022/03/09 09:30:23;;;;;;;4.97;2.80;;;18.50;45.40;;;;;;5051221;28;20171;-65
2022/03/09 09:32:49;;;;;;;4.20;2.92;;;18.50;45.50;;;;;;5051029;28;20289;-64
2022/03/09 09:35:15;;;;;;;3.97;3.03;;;18.50;45.50;;;;;;5051236;28;20175;-63
2022/03/09 09:37:41;;;;;;;5.25;3.42;;;18.40;45.40;;;;;;5051794;28;20179;-65
2022/03/09 09:40:07;;;;;;;2.72;2.45;;;18.40;45.50;;;;;;5050615;28;20176;-65
2022/03/09 09:42:33;;;;;;;3.88;2.53;;;18.40;45.60;;;;;;5051355;28;20284;-65
2022/03/09 09:45:00;;;;;;;3.22;2.75;;;18.50;45.70;;;;;;5051516;28;20327;-65
2022/03/09 09:47:29;;;;;;;4.10;2.63;;;18.50;45.60;;;;;;5050672;28;20241;-66
2022/03/09 09:49:58;;;;;;;4.18;2.97;;;18.50;45.60;;;;;;5051561;28;20179;-67
2022/03/09 09:52:27;;;;;;;5.25;3.00;;;18.50;45.50;;;;;;5051095;28;20179;-66
2022/03/09 09:54:54;;;;;;;7.53;2.85;;;18.50;45.50;;;;;;5050478;28;20223;-65
2022/03/09 09:57:19;;;;;;;3.22;2.75;;;18.50;45.50;;;;;;5035085;28;20179;-64
2022/03/09 09:59:45;;;;;;;3.08;2.83;;;18.50;45.50;;;;;;5032003;28;20279;-65
2022/03/09 10:02:10;;;;;;;3.40;2.45;;;18.50;45.50;;;;;;5029171;28;20697;-65
2022/03/09 10:04:38;;;;;;;4.97;3.10;;;18.50;45.50;;;;;;5031702;28;20230;-65
2022/03/09 10:07:04;;;;;;;3.05;2.70;;;18.50;45.50;;;;;;5031445;28;20635;-64
2022/03/09 10:09:36;;;;;;;3.35;2.38;;;18.50;45.50;;;;;;5030382;28;20172;-65
2022/03/09 10:12:04;;;;;;;3.25;2.40;;;18.50;45.50;;;;;;5031734;28;20195;-66
2022/03/09 10:14:52;;;;;;;3.58;2.55;;;18.50;45.40;;;;;;5031399;28;20180;-66
2022/03/09 10:17:19;;;;;;;3.25;2.67;;;18.50;45.40;;;;;;5031187;28;20172;-65
2022/03/09 10:19:46;;;;;;;2.53;2.33;;;18.50;45.50;;;;;;5034990;28;20249;-65
2022/03/09 10:22:28;;;;;;;2.70;2.50;;;18.50;45.50;;;;;;5033520;28;20282;-66
2022/03/09 10:24:55;;;;;;;4.43;2.42;;;18.50;45.50;;;;;;5034977;28;20183;-65
2022/03/09 10:27:32;;;;;;;2.72;2.50;;;18.50;45.60;;;;;;5034550;28;20253;-67
2022/03/09 10:29:59;;;;;;;4.18;2.58;;;18.50;45.50;;;;;;5034068;28;20184;-66
2022/03/09 10:32:44;;;;;;;3.13;2.78;;;18.50;45.50;;;;;;5034316;28;20602;-64
2022/03/09 10:35:10;;;;;;;3.55;2.42;;;18.50;45.60;;;;;;5034256;28;20576;-64
2022/03/09 10:37:40;;;;;;;2.90;2.47;;;18.50;45.50;;;;;;5033881;28;20245;-63
2022/03/09 10:40:13;;;;;;;3.60;2.50;;;18.50;45.50;;;;;;5034614;28;20183;-64
2022/03/09 10:42:39;;;;;;;3.40;2.58;;;18.50;45.40;;;;;;5034381;28;20210;-65
2022/03/09 10:45:07;;;;;;;3.38;2.67;;;18.50;45.40;;;;;;5033153;28;20188;-64
2022/03/09 10:47:38;;;;;;;2.88;2.30;;;18.50;46.00;;;;;;5034622;28;20211;-65
2022/03/09 10:50:18;;;;;;;3.15;2.67;;;18.60;45.40;;;;;;5033938;28;20180;-65
2022/03/09 10:52:52;;;;;;;2.75;2.55;;;18.50;45.30;;;;;;5034621;28;20176;-65
2022/03/09 10:55:21;;;;;;;3.25;2.67;;;18.60;45.40;;;;;;5033701;28;20224;-64
2022/03/09 10:57:46;;;;;;;2.60;2.40;;;18.50;45.30;;;;;;5053554;28;20187;-64
2022/03/09 11:00:12;;;;;;;2.22;2.05;;;18.60;45.40;;;;;;5053751;28;20197;-65
2022/03/09 11:02:48;;;;;;;3.33;2.75;;;18.60;45.40;;;;;;5054068;28;20210;-64
2022/03/09 11:05:13;;;;;;;3.67;2.72;;;18.60;45.30;;;;;;5053351;28;20196;-64
2022/03/09 11:07:39;;;;;;;3.80;2.90;;;18.60;45.30;;;;;;5054046;28;20180;-63
2022/03/09 11:10:06;;;;;;;3.13;2.38;;;18.60;45.30;;;;;;5053790;28;20171;-67
2022/03/09 11:12:32;;;;;;;5.00;2.72;;;18.60;45.30;;;;;;5053375;28;20181;-66
2022/03/09 11:14:57;;;;;;;2.30;2.10;;;18.60;45.30;;;;;;5054091;28;20515;-66
2022/03/09 11:17:23;;;;;;;2.92;2.53;;;18.60;45.30;;;;;;5052228;28;20175;-66
2022/03/09 11:19:48;;;;;;;3.70;2.10;;;18.60;45.40;;;;;;5053105;28;20498;-66
2022/03/09 11:22:14;;;;;;;3.20;2.00;;;18.70;45.40;;;;;;5053324;28;20203;-67
2022/03/09 11:24:40;;;;;;;4.63;2.33;;;18.70;45.40;;;;;;5053472;28;20175;-68
2022/03/09 11:27:07;;;;;;;4.03;2.55;;;18.70;46.00;;;;;;5052606;28;20167;-67
2022/03/09 11:29:37;;;;;;;2.88;2.50;;;18.70;45.30;;;;;;5051793;28;20196;-70
2022/03/09 11:32:07;;;;;;;4.20;2.15;;;18.70;45.90;;;;;;5053336;28;20641;-70
2022/03/09 11:34:41;;;;;;;4.80;2.42;;;18.70;45.30;;;;;;5053479;28;20199;-65
2022/03/09 11:37:10;;;;;;;4.78;2.72;;;18.70;45.40;;;;;;5053036;28;20182;-66
2022/03/09 11:39:37;;;;;;;3.00;2.47;;;18.70;45.50;;;;;;5052822;28;20190;-66
2022/03/09 11:42:21;;;;;;;3.78;2.80;;;18.60;45.50;;;;;;5053395;28;20547;-66
2022/03/09 11:44:51;;;;;;;3.70;2.50;;;18.60;45.50;;;;;;5053237;28;20167;-67
2022/03/09 11:47:16;;;;;;;3.45;2.80;;;18.60;45.60;;;;;;5052224;28;20168;-67
2022/03/09 11:49:42;;;;;;;2.50;2.15;;;18.70;45.60;;;;;;5052951;28;20202;-69
2022/03/09 11:52:08;;;;;;;3.28;2.30;;;18.70;45.60;;;;;;5052773;28;20171;-67
2022/03/09 11:54:56;;;;;;;2.40;2.20;;;18.70;45.60;;;;;;5052166;28;20215;-67
2022/03/09 11:57:44;;;;;;;2.85;2.10;;;18.80;45.60;;;;;;5036354;28;20180;-67
2022/03/09 12:00:14;;;;;;;3.58;2.80;;;18.80;45.60;;;;;;5031204;28;20404;-68
2022/03/09 12:02:43;;;;;;;2.60;2.40;;;18.80;45.50;;;;;;5033059;28;20621;-63
2022/03/09 12:05:31;;;;;;;3.05;2.75;;;18.80;45.50;;;;;;5032611;28;20513;-66
2022/03/09 12:08:00;;;;;;;2.80;2.17;;;18.80;45.50;;;;;;5032086;28;20512;-67
2022/03/09 12:10:50;;;;;;;2.60;2.40;;;18.80;45.40;;;;;;5032581;28;20192;-71
2022/03/09 12:13:19;;;;;;;3.97;2.65;;;18.90;45.50;;;;;;5032768;28;20194;-68
2022/03/09 12:16:07;;;;;;;5.05;3.00;;;18.90;45.50;;;;;;5032114;28;20717;-68
2022/03/09 12:18:57;;;;;;;4.07;2.80;;;18.80;45.30;;;;;;5032601;28;20187;-66
2022/03/09 12:21:34;;;;;;;3.55;2.67;;;18.80;45.30;;;;;;5031550;28;20178;-66
2022/03/09 12:24:03;;;;;;;3.70;2.42;;;18.90;45.40;;;;;;5032541;28;20241;-69
2022/03/09 12:26:41;;;;;;;2.50;2.30;;;18.80;45.40;;;;;;5032227;28;20195;-71
2022/03/09 12:29:21;;;;;;;3.60;2.95;;;18.90;45.40;;;;;;5031513;28;20631;-65
2022/03/09 12:31:58;;;;;;;3.17;2.85;;;18.80;45.40;;;;;;5032415;28;20665;-66
2022/03/09 12:34:28;;;;;;;3.05;2.63;;;18.80;45.40;;;;;;5032470;28;20537;-64
2022/03/09 12:36:54;;;;;;;3.03;2.80;;;18.80;45.40;;;;;;5031795;28;20188;-65
2022/03/09 12:39:19;;;;;;;3.55;2.72;;;18.80;45.40;;;;;;5032264;28;20175;-65
2022/03/09 12:41:46;;;;;;;3.55;3.20;;;18.70;45.30;;;;;;5032306;28;20192;-65
2022/03/09 12:44:16;;;;;;;2.55;2.30;;;18.70;45.30;;;;;;5013928;28;20264;-65
2022/03/09 12:46:46;;;;;;;3.40;3.10;;;18.70;45.30;;;;;;5032628;28;20184;-65